Time;durP1;ratioP1;P1;durP2;ratioP2;P2;SDS_P1;SDS_P2;PMS_P1;PMS_P2;Temp;Humidity;BMP_temperature;BMP_pressure;BME280_temperature;BME280_humidity;BME280_pressure;Samples;Min_cycle;Max_cycle;Signal;HPM_P1;HPM_P2
2021/11/06 00:02:23;;;;;;;0.65;0.60;;;16.90;67.50;;;;;;5105113;28;20031;-37
2021/11/06 00:04:49;;;;;;;0.47;0.40;;;16.90;67.60;;;;;;5103678;28;20040;-37
2021/11/06 00:07:16;;;;;;;0.68;0.47;;;16.80;67.60;;;;;;5092340;28;20050;-37
2021/11/06 00:09:47;;;;;;;0.52;0.40;;;16.80;67.60;;;;;;5104906;28;20048;-38
2021/11/06 00:12:14;;;;;;;1.08;0.50;;;16.80;67.60;;;;;;5105183;28;20050;-37
2021/11/06 00:14:40;;;;;;;0.40;0.40;;;16.80;67.70;;;;;;5104332;28;20063;-38
2021/11/06 00:17:06;;;;;;;0.85;0.60;;;16.90;68.10;;;;;;5105104;28;20083;-38
2021/11/06 00:19:32;;;;;;;0.65;0.50;;;16.90;68.00;;;;;;5104503;28;20024;-37
2021/11/06 00:21:59;;;;;;;0.47;0.43;;;16.90;67.80;;;;;;5104673;28;20024;-37
2021/11/06 00:24:25;;;;;;;0.60;0.52;;;16.90;67.70;;;;;;5104809;28;20040;-38
2021/11/06 00:26:51;;;;;;;0.50;0.40;;;16.90;67.70;;;;;;5104731;28;20047;-38
2021/11/06 00:29:18;;;;;;;0.90;0.60;;;16.90;67.80;;;;;;5104578;28;20028;-38
2021/11/06 00:31:44;;;;;;;0.50;0.50;;;16.90;67.80;;;;;;5104372;28;20031;-38
2021/11/06 00:34:11;;;;;;;0.70;0.60;;;16.80;67.70;;;;;;5104615;28;20060;-38
2021/11/06 00:36:37;;;;;;;0.70;0.70;;;16.80;67.70;;;;;;5104201;28;20024;-37
2021/11/06 00:39:04;;;;;;;0.70;0.43;;;16.80;67.80;;;;;;5104530;28;20051;-38
2021/11/06 00:41:30;;;;;;;0.60;0.60;;;16.80;68.20;;;;;;5104313;28;20032;-37
2021/11/06 00:43:57;;;;;;;0.82;0.50;;;16.90;68.30;;;;;;5104262;28;20107;-37
2021/11/06 00:46:23;;;;;;;0.60;0.50;;;16.90;68.10;;;;;;5104109;28;20020;-38
2021/11/06 00:48:49;;;;;;;0.47;0.45;;;16.90;68.00;;;;;;5104093;28;20078;-38
2021/11/06 00:51:15;;;;;;;0.60;0.40;;;16.90;67.90;;;;;;5104032;28;20035;-38
2021/11/06 00:53:41;;;;;;;0.60;0.50;;;16.90;68.00;;;;;;5104179;28;20091;-37
2021/11/06 00:56:07;;;;;;;0.63;0.52;;;16.80;67.90;;;;;;5104082;28;20795;-38
2021/11/06 00:58:33;;;;;;;0.80;0.40;;;16.80;67.90;;;;;;5104081;28;20046;-37
2021/11/06 01:01:00;;;;;;;0.55;0.50;;;16.80;67.90;;;;;;5103739;28;20031;-37
2021/11/06 01:03:26;;;;;;;0.70;0.60;;;16.80;67.90;;;;;;5103809;28;20110;-38
2021/11/06 01:05:52;;;;;;;0.70;0.50;;;16.80;68.10;;;;;;5103887;28;20040;-38
2021/11/06 01:08:18;;;;;;;0.50;0.50;;;16.80;68.40;;;;;;5103601;28;20026;-38
2021/11/06 01:10:44;;;;;;;0.50;0.50;;;16.90;68.40;;;;;;5103613;28;20028;-37
2021/11/06 01:13:11;;;;;;;0.55;0.50;;;16.90;68.10;;;;;;5103755;28;20091;-37
2021/11/06 01:15:37;;;;;;;0.70;0.60;;;16.90;68.00;;;;;;5103489;28;20048;-38
2021/11/06 01:18:04;;;;;;;0.80;0.50;;;16.90;68.10;;;;;;5103693;28;20088;-37
2021/11/06 01:20:30;;;;;;;0.77;0.45;;;16.80;68.10;;;;;;5103391;28;20087;-37
2021/11/06 01:22:57;;;;;;;0.50;0.50;;;16.80;68.00;;;;;;5103437;28;20024;-37
2021/11/06 01:25:23;;;;;;;0.60;0.50;;;16.80;68.00;;;;;;5103439;28;20036;-37
2021/11/06 01:27:49;;;;;;;0.77;0.40;;;16.70;68.00;;;;;;5102827;28;20028;-38
2021/11/06 01:30:15;;;;;;;0.57;0.52;;;16.70;68.00;;;;;;5103457;28;20028;-37
2021/11/06 01:32:44;;;;;;;0.90;0.68;;;16.80;68.40;;;;;;5101786;28;20021;-38
2021/11/06 01:35:10;;;;;;;0.50;0.40;;;16.80;68.40;;;;;;5103413;28;20031;-38
2021/11/06 01:37:36;;;;;;;1.23;0.77;;;16.90;68.30;;;;;;5101503;28;20047;-37
2021/11/06 01:40:04;;;;;;;0.55;0.40;;;16.90;68.20;;;;;;5103244;28;20050;-37
2021/11/06 01:42:31;;;;;;;0.55;0.50;;;16.90;68.30;;;;;;5103113;28;20024;-38
2021/11/06 01:44:57;;;;;;;0.50;0.50;;;16.80;68.20;;;;;;5102587;28;20055;-38
2021/11/06 01:47:23;;;;;;;0.80;0.77;;;16.80;68.20;;;;;;5103263;28;20028;-38
2021/11/06 01:49:49;;;;;;;1.05;0.55;;;16.70;68.10;;;;;;5103202;28;20031;-37
2021/11/06 01:52:16;;;;;;;1.77;0.77;;;16.70;68.20;;;;;;5102670;28;20032;-38
2021/11/06 01:54:42;;;;;;;0.60;0.50;;;16.70;68.20;;;;;;5103086;28;20538;-38
2021/11/06 01:57:08;;;;;;;0.80;0.60;;;16.70;68.20;;;;;;5102959;28;20036;-37
2021/11/06 01:59:34;;;;;;;2.55;0.60;;;16.70;68.50;;;;;;5101714;28;20035;-38
2021/11/06 02:02:00;;;;;;;0.60;0.50;;;16.90;68.70;;;;;;5102875;28;20022;-38
2021/11/06 02:04:27;;;;;;;0.50;0.50;;;16.90;68.50;;;;;;5102839;28;20040;-37
2021/11/06 02:06:53;;;;;;;0.60;0.60;;;16.90;68.30;;;;;;5102512;28;20031;-38
2021/11/06 02:09:19;;;;;;;0.70;0.57;;;16.80;68.30;;;;;;5103151;28;20039;-37
2021/11/06 02:11:45;;;;;;;0.57;0.50;;;16.80;68.40;;;;;;5102508;28;20092;-38
2021/11/06 02:14:11;;;;;;;0.75;0.50;;;16.80;68.40;;;;;;5102723;28;20052;-37
2021/11/06 02:16:38;;;;;;;0.85;0.60;;;16.80;68.40;;;;;;5101186;28;20043;-38
2021/11/06 02:19:06;;;;;;;0.45;0.40;;;16.70;68.30;;;;;;5102798;28;20056;-38
2021/11/06 02:21:34;;;;;;;0.50;0.50;;;16.70;68.30;;;;;;5102511;28;20083;-38
2021/11/06 02:24:00;;;;;;;0.75;0.50;;;16.80;68.80;;;;;;5102603;28;20024;-38
2021/11/06 02:26:26;;;;;;;0.77;0.70;;;16.80;68.80;;;;;;5102758;28;20028;-37
2021/11/06 02:28:56;;;;;;;0.60;0.43;;;16.90;68.70;;;;;;5102874;28;20028;-37
2021/11/06 02:31:22;;;;;;;1.35;0.50;;;16.90;68.50;;;;;;5102645;28;20365;-37
2021/11/06 02:33:49;;;;;;;0.80;0.60;;;16.80;68.40;;;;;;5102748;28;20036;-39
2021/11/06 02:36:15;;;;;;;0.50;0.50;;;16.80;68.50;;;;;;5084009;28;20028;-38
2021/11/06 02:38:42;;;;;;;0.73;0.68;;;16.80;68.50;;;;;;5102938;28;20048;-38
2021/11/06 02:41:08;;;;;;;0.98;0.77;;;16.70;68.40;;;;;;5105117;28;20032;-37
2021/11/06 02:43:34;;;;;;;0.75;0.65;;;16.70;68.50;;;;;;5104855;28;20374;-38
2021/11/06 02:46:00;;;;;;;0.80;0.70;;;16.70;68.50;;;;;;5106629;28;20773;-37
2021/11/06 02:48:26;;;;;;;1.60;0.80;;;16.70;68.40;;;;;;5106429;28;20029;-38
2021/11/06 02:50:53;;;;;;;0.50;0.50;;;16.70;68.60;;;;;;5106347;28;20088;-38
2021/11/06 02:53:20;;;;;;;0.90;0.70;;;16.80;68.90;;;;;;5106072;28;20031;-38
2021/11/06 02:55:47;;;;;;;;;;;16.80;68.80;;;;;;5106591;28;20099;-38
2021/11/06 02:58:13;;;;;;;0.40;0.40;;;16.80;68.60;;;;;;5106351;28;19940;-37
2021/11/06 03:00:39;;;;;;;0.55;0.52;;;16.90;68.60;;;;;;5106320;28;20081;-38
2021/11/06 03:03:05;;;;;;;2.55;0.75;;;16.80;68.50;;;;;;5106017;28;20235;-38
2021/11/06 03:05:31;;;;;;;0.70;0.60;;;16.80;68.60;;;;;;5106214;28;20031;-38
2021/11/06 03:07:58;;;;;;;0.80;0.57;;;16.70;68.50;;;;;;5105595;28;20020;-38
2021/11/06 03:10:24;;;;;;;0.90;0.50;;;16.70;68.50;;;;;;5106175;28;20028;-37
2021/11/06 03:12:50;;;;;;;0.77;0.70;;;16.70;68.50;;;;;;5105768;28;20028;-38
2021/11/06 03:15:17;;;;;;;0.85;0.60;;;16.70;68.60;;;;;;5104440;28;20055;-38
2021/11/06 03:17:43;;;;;;;0.70;0.65;;;16.70;68.90;;;;;;5106080;28;20073;-38
2021/11/06 03:20:10;;;;;;;0.73;0.50;;;16.80;69.10;;;;;;5105792;28;20032;-38
2021/11/06 03:22:36;;;;;;;0.85;0.70;;;16.80;68.80;;;;;;5105628;28;20098;-37
2021/11/06 03:25:05;;;;;;;0.82;0.70;;;16.80;68.70;;;;;;5105823;28;20721;-37
2021/11/06 03:27:32;;;;;;;0.68;0.60;;;16.80;68.60;;;;;;5105669;28;20053;-37
2021/11/06 03:29:58;;;;;;;1.05;0.70;;;16.80;68.70;;;;;;5105688;28;20039;-38
2021/11/06 03:32:24;;;;;;;0.95;0.80;;;16.70;68.70;;;;;;5105484;28;20545;-37
2021/11/06 03:34:50;;;;;;;1.02;0.55;;;16.70;68.70;;;;;;5105635;28;20036;-38
2021/11/06 03:37:16;;;;;;;0.88;0.68;;;16.70;68.70;;;;;;5105218;28;20030;-37
2021/11/06 03:39:42;;;;;;;0.63;0.60;;;16.70;69.00;;;;;;5105589;28;20040;-37
2021/11/06 03:42:09;;;;;;;0.60;0.60;;;16.80;69.20;;;;;;5105240;28;20055;-38
2021/11/06 03:44:36;;;;;;;0.70;0.60;;;16.90;69.00;;;;;;5105174;28;20094;-38
2021/11/06 03:47:02;;;;;;;1.05;0.60;;;16.90;68.80;;;;;;5103026;28;20033;-38
2021/11/06 03:49:29;;;;;;;1.07;0.90;;;16.90;68.80;;;;;;5104579;28;20039;-38
2021/11/06 03:51:55;;;;;;;0.60;0.50;;;16.80;69.50;;;;;;5104967;28;20028;-37
2021/11/06 03:54:21;;;;;;;1.48;0.70;;;16.80;68.90;;;;;;5103644;28;20622;-38
2021/11/06 03:56:47;;;;;;;0.65;0.65;;;16.70;68.80;;;;;;5105156;28;20046;-38
2021/11/06 03:59:13;;;;;;;0.73;0.63;;;16.70;68.80;;;;;;5105168;28;20473;-38
2021/11/06 04:01:39;;;;;;;0.65;0.60;;;16.70;68.80;;;;;;5105132;28;20024;-38
2021/11/06 04:04:06;;;;;;;0.90;0.80;;;16.80;69.20;;;;;;5104703;28;20079;-38
2021/11/06 04:06:32;;;;;;;0.98;0.80;;;16.80;69.10;;;;;;5104437;28;20024;-37
2021/11/06 04:08:58;;;;;;;0.93;0.55;;;16.80;68.90;;;;;;5104981;28;20028;-37
2021/11/06 04:11:25;;;;;;;0.82;0.68;;;16.80;68.80;;;;;;5104987;28;20128;-38
2021/11/06 04:13:51;;;;;;;0.68;0.60;;;16.80;68.80;;;;;;5101020;28;20062;-38
2021/11/06 04:16:17;;;;;;;0.80;0.67;;;16.80;68.90;;;;;;5104879;28;20038;-38
2021/11/06 04:18:44;;;;;;;0.70;0.70;;;16.70;68.80;;;;;;5104743;28;20043;-37
2021/11/06 04:21:10;;;;;;;0.73;0.68;;;16.70;68.80;;;;;;5104495;28;20024;-38
2021/11/06 04:23:36;;;;;;;0.93;0.73;;;16.70;68.80;;;;;;5104339;28;20453;-38
2021/11/06 04:26:03;;;;;;;1.05;0.80;;;16.70;68.90;;;;;;5104807;28;20078;-37
2021/11/06 04:28:29;;;;;;;0.90;0.73;;;16.80;69.30;;;;;;5104578;28;20024;-38
2021/11/06 04:30:55;;;;;;;0.50;0.50;;;16.80;69.20;;;;;;5104611;28;20488;-37
2021/11/06 04:33:21;;;;;;;1.08;0.70;;;16.90;69.00;;;;;;5103919;28;20142;-37
2021/11/06 04:35:47;;;;;;;0.80;0.80;;;16.80;68.90;;;;;;5103051;28;20032;-38
2021/11/06 04:38:14;;;;;;;0.75;0.68;;;16.80;68.90;;;;;;5104073;28;20024;-38
2021/11/06 04:40:40;;;;;;;0.80;0.70;;;16.80;69.00;;;;;;5102808;28;20036;-38
2021/11/06 04:43:06;;;;;;;0.80;0.70;;;16.70;68.90;;;;;;5103919;28;20028;-38
2021/11/06 04:45:32;;;;;;;1.00;0.80;;;16.70;68.90;;;;;;5098832;28;20458;-38
2021/11/06 04:47:58;;;;;;;1.70;0.90;;;16.70;68.90;;;;;;5104064;28;20051;-38
2021/11/06 04:50:25;;;;;;;1.13;0.90;;;16.70;69.00;;;;;;5103992;28;20074;-37
2021/11/06 04:52:51;;;;;;;0.80;0.70;;;16.80;69.20;;;;;;5103954;28;20028;-38
2021/11/06 04:55:17;;;;;;;1.13;0.82;;;16.80;69.10;;;;;;5103741;28;20032;-37
2021/11/06 04:57:44;;;;;;;1.15;0.70;;;16.80;68.90;;;;;;5103912;28;20028;-38
2021/11/06 05:00:12;;;;;;;0.80;0.80;;;16.80;68.90;;;;;;5103896;28;20028;-37
2021/11/06 05:02:38;;;;;;;1.42;0.80;;;16.80;68.90;;;;;;5102964;28;20257;-38
2021/11/06 05:05:06;;;;;;;1.33;1.00;;;16.70;68.80;;;;;;5103435;28;20040;-38
2021/11/06 05:07:31;;;;;;;;;;;16.70;68.80;;;;;;5103910;28;20024;-37
2021/11/06 05:09:58;;;;;;;0.80;0.65;;;16.70;68.90;;;;;;5103852;28;19912;-38
2021/11/06 05:12:24;;;;;;;0.73;0.73;;;16.70;68.90;;;;;;5103632;28;20085;-38
2021/11/06 05:14:50;;;;;;;1.00;0.83;;;16.60;68.90;;;;;;5103333;28;20040;-37
2021/11/06 05:17:18;;;;;;;1.00;0.75;;;16.70;69.80;;;;;;5102402;28;20036;-37
2021/11/06 05:19:44;;;;;;;1.00;0.90;;;16.80;69.10;;;;;;5103492;28;20024;-38
2021/11/06 05:22:11;;;;;;;1.02;0.75;;;16.80;68.90;;;;;;5103399;28;20789;-38
2021/11/06 05:24:37;;;;;;;0.65;0.57;;;16.80;68.80;;;;;;5103220;28;20036;-38
2021/11/06 05:27:04;;;;;;;1.10;0.90;;;16.80;68.80;;;;;;5103661;28;20031;-38
2021/11/06 05:29:30;;;;;;;;;;;16.70;68.80;;;;;;5103736;28;20084;-38
2021/11/06 05:31:56;;;;;;;1.00;0.90;;;16.70;68.90;;;;;;5103307;28;19908;-38
2021/11/06 05:34:22;;;;;;;1.20;1.08;;;16.70;69.60;;;;;;5102987;28;20039;-37
2021/11/06 05:36:49;;;;;;;2.50;0.90;;;16.70;68.90;;;;;;5102624;28;20035;-38
2021/11/06 05:39:15;;;;;;;0.80;0.70;;;16.80;69.20;;;;;;5103137;28;20024;-38
2021/11/06 05:41:41;;;;;;;1.42;1.00;;;16.80;69.00;;;;;;5103278;28;20028;-38
2021/11/06 05:44:07;;;;;;;1.05;0.80;;;16.80;68.80;;;;;;5102884;28;20032;-38
2021/11/06 05:46:33;;;;;;;1.95;0.68;;;16.80;68.70;;;;;;5102987;28;20027;-38
2021/11/06 05:48:59;;;;;;;0.70;0.70;;;16.80;68.70;;;;;;5103179;28;20145;-38
2021/11/06 05:51:26;;;;;;;1.33;0.98;;;16.70;68.70;;;;;;5103014;28;20039;-38
2021/11/06 05:53:52;;;;;;;1.10;0.95;;;16.70;68.80;;;;;;5103012;28;20020;-37
2021/11/06 05:56:19;;;;;;;0.70;0.70;;;16.70;68.80;;;;;;5102637;28;20024;-38
2021/11/06 05:58:46;;;;;;;1.77;1.00;;;16.70;68.80;;;;;;5102865;28;20027;-38
2021/11/06 06:01:12;;;;;;;0.90;0.70;;;16.70;68.90;;;;;;5102678;28;20038;-37
2021/11/06 06:03:38;;;;;;;1.05;0.95;;;16.80;69.20;;;;;;5102803;28;20032;-38
2021/11/06 06:06:04;;;;;;;1.42;1.05;;;16.80;68.90;;;;;;5102703;28;20111;-38
2021/11/06 06:08:30;;;;;;;0.68;0.68;;;16.80;68.70;;;;;;5101947;28;20024;-38
2021/11/06 06:10:57;;;;;;;0.80;0.80;;;16.80;68.70;;;;;;5082728;28;20078;-37
2021/11/06 06:13:25;;;;;;;2.50;0.90;;;16.80;68.60;;;;;;5091318;28;20032;-38
2021/11/06 06:15:51;;;;;;;1.02;0.77;;;16.70;68.70;;;;;;5106609;28;20051;-38
2021/11/06 06:18:17;;;;;;;1.17;1.00;;;16.70;68.80;;;;;;5106958;28;20024;-38
2021/11/06 06:20:43;;;;;;;1.88;1.13;;;16.70;68.80;;;;;;5106920;28;20054;-38
2021/11/06 06:23:10;;;;;;;0.80;0.75;;;16.70;68.80;;;;;;5106754;28;20552;-38
2021/11/06 06:25:36;;;;;;;1.48;0.70;;;16.70;69.00;;;;;;5106308;28;20047;-38
2021/11/06 06:28:03;;;;;;;0.93;0.82;;;16.80;68.90;;;;;;5106947;28;20132;-38
2021/11/06 06:30:29;;;;;;;0.90;0.88;;;16.80;68.70;;;;;;5106787;28;20103;-38
2021/11/06 06:32:56;;;;;;;1.20;0.90;;;16.80;68.60;;;;;;5106615;28;20062;-37
2021/11/06 06:35:22;;;;;;;1.15;0.80;;;16.80;68.60;;;;;;5106536;28;20028;-38
2021/11/06 06:37:48;;;;;;;1.00;0.90;;;16.70;68.60;;;;;;5105944;28;20028;-38
2021/11/06 06:40:15;;;;;;;1.15;1.00;;;16.70;68.70;;;;;;5106345;28;20032;-38
2021/11/06 06:42:41;;;;;;;0.90;0.80;;;16.70;68.70;;;;;;5106147;28;20043;-38
2021/11/06 06:45:08;;;;;;;1.08;0.90;;;16.70;68.60;;;;;;5106047;28;20067;-38
2021/11/06 06:47:34;;;;;;;0.98;0.95;;;16.70;68.80;;;;;;5105975;28;20108;-38
2021/11/06 06:50:01;;;;;;;0.82;0.80;;;16.70;68.90;;;;;;5100658;28;20787;-37
2021/11/06 06:52:27;;;;;;;1.17;0.88;;;16.80;68.70;;;;;;5085708;28;20027;-38
2021/11/06 06:54:53;;;;;;;1.02;0.70;;;16.80;68.50;;;;;;5085817;28;20032;-38
2021/11/06 06:57:19;;;;;;;1.00;0.85;;;16.80;68.40;;;;;;5085402;28;20397;-37
2021/11/06 06:59:45;;;;;;;1.10;1.00;;;16.70;68.40;;;;;;5085732;28;20053;-38
2021/11/06 07:02:12;;;;;;;0.70;0.70;;;16.70;68.40;;;;;;5085770;28;20031;-37
2021/11/06 07:04:38;;;;;;;1.13;0.95;;;16.70;68.60;;;;;;5085431;28;20060;-38
2021/11/06 07:07:04;;;;;;;1.40;1.00;;;16.70;68.60;;;;;;5091239;28;20024;-38
2021/11/06 07:09:30;;;;;;;0.98;0.88;;;16.70;68.60;;;;;;5105873;28;20060;-38
2021/11/06 07:11:57;;;;;;;1.00;0.82;;;16.70;68.70;;;;;;5105757;28;20028;-38
2021/11/06 07:14:23;;;;;;;0.90;0.80;;;16.80;68.40;;;;;;5105742;28;20120;-38
2021/11/06 07:16:49;;;;;;;1.10;0.90;;;16.80;68.20;;;;;;5105310;28;20043;-37
2021/11/06 07:19:15;;;;;;;1.40;0.95;;;16.80;68.20;;;;;;5105790;28;20724;-38
2021/11/06 07:21:41;;;;;;;0.80;0.80;;;16.70;68.20;;;;;;5105678;28;20028;-38
2021/11/06 07:24:08;;;;;;;0.90;0.80;;;16.70;68.30;;;;;;5104394;28;20073;-38
2021/11/06 07:26:34;;;;;;;1.27;0.88;;;16.70;68.30;;;;;;5105138;28;20088;-38
2021/11/06 07:29:00;;;;;;;0.75;0.75;;;16.70;68.30;;;;;;5105198;28;20016;-38
2021/11/06 07:31:26;;;;;;;1.23;1.00;;;16.60;68.30;;;;;;5105405;28;20035;-38
2021/11/06 07:33:55;;;;;;;1.00;0.90;;;16.70;68.50;;;;;;5104060;28;20024;-37
2021/11/06 07:36:22;;;;;;;0.85;0.75;;;16.70;68.50;;;;;;5105159;28;20035;-38
2021/11/06 07:38:48;;;;;;;0.70;0.70;;;16.80;68.30;;;;;;5104395;28;20540;-38
2021/11/06 07:41:14;;;;;;;0.70;0.70;;;16.80;68.10;;;;;;5105293;28;20040;-38
2021/11/06 07:43:41;;;;;;;1.00;0.90;;;16.80;68.20;;;;;;5105076;28;20036;-38
2021/11/06 07:46:08;;;;;;;1.13;1.02;;;16.70;68.10;;;;;;5105169;28;20032;-37
2021/11/06 07:48:34;;;;;;;0.98;0.90;;;16.70;68.20;;;;;;5104905;28;20089;-37
2021/11/06 07:51:01;;;;;;;1.77;1.10;;;16.70;68.20;;;;;;5105050;28;20469;-37
2021/11/06 07:53:27;;;;;;;0.70;0.60;;;16.70;68.20;;;;;;5104875;28;20380;-37
2021/11/06 07:55:53;;;;;;;0.88;0.80;;;16.70;68.30;;;;;;5104916;28;20084;-38
2021/11/06 07:58:19;;;;;;;1.10;0.90;;;16.80;68.40;;;;;;5104875;28;20514;-38
2021/11/06 08:00:45;;;;;;;0.88;0.80;;;16.80;68.20;;;;;;5104772;28;20024;-38
2021/11/06 08:03:12;;;;;;;0.85;0.80;;;16.80;68.00;;;;;;5104918;28;20024;-38
2021/11/06 08:05:38;;;;;;;0.95;0.70;;;16.70;67.90;;;;;;5104513;28;20039;-38
2021/11/06 08:08:04;;;;;;;1.30;1.17;;;16.70;68.00;;;;;;5104109;28;20489;-37
2021/11/06 08:10:31;;;;;;;0.53;0.50;;;16.70;68.00;;;;;;5105010;28;20040;-38
2021/11/06 08:13:02;;;;;;;1.15;0.80;;;16.70;68.10;;;;;;5103922;28;20039;-38
2021/11/06 08:15:28;;;;;;;1.00;0.75;;;16.60;68.00;;;;;;5084036;28;20073;-38
2021/11/06 08:17:54;;;;;;;0.80;0.70;;;16.70;68.20;;;;;;5084208;28;20062;-38
2021/11/06 08:20:24;;;;;;;1.00;0.65;;;16.70;68.20;;;;;;5083946;28;20060;-38
2021/11/06 08:22:53;;;;;;;0.82;0.60;;;16.80;68.10;;;;;;5084305;28;20028;-38
2021/11/06 08:25:19;;;;;;;0.70;0.60;;;16.80;67.90;;;;;;5084150;28;20044;-38
2021/11/06 08:27:49;;;;;;;1.10;1.00;;;16.70;67.90;;;;;;5083836;28;20052;-38
2021/11/06 08:30:16;;;;;;;1.27;0.75;;;16.70;68.00;;;;;;5084165;28;20757;-37
2021/11/06 08:32:43;;;;;;;1.00;0.90;;;16.70;68.00;;;;;;5082766;28;20161;-38
2021/11/06 08:35:10;;;;;;;1.15;0.90;;;16.60;67.90;;;;;;5065932;28;20021;-37
2021/11/06 08:37:37;;;;;;;1.25;0.70;;;16.60;68.00;;;;;;5093724;28;20027;-38
2021/11/06 08:40:05;;;;;;;1.00;0.90;;;16.60;68.00;;;;;;5104171;28;20114;-38
2021/11/06 08:42:31;;;;;;;;;;;16.70;68.10;;;;;;5104609;28;20081;-38
2021/11/06 08:44:57;;;;;;;0.82;0.70;;;16.80;67.80;;;;;;5103995;28;19916;-38
2021/11/06 08:47:23;;;;;;;0.73;0.68;;;16.80;67.60;;;;;;5103786;28;20032;-38
2021/11/06 08:49:50;;;;;;;1.05;0.90;;;16.70;67.60;;;;;;5103709;28;20093;-37
2021/11/06 08:52:18;;;;;;;0.82;0.75;;;16.70;67.70;;;;;;5103649;28;20040;-37
2021/11/06 08:54:46;;;;;;;0.70;0.70;;;16.60;67.70;;;;;;5103878;28;20058;-37
2021/11/06 08:57:12;;;;;;;0.47;0.47;;;16.60;67.70;;;;;;5103789;28;20020;-38
2021/11/06 08:59:38;;;;;;;1.00;0.90;;;16.60;67.80;;;;;;5103586;28;20028;-38
2021/11/06 09:02:04;;;;;;;1.02;0.70;;;16.70;68.00;;;;;;5103807;28;20036;-38
2021/11/06 09:04:31;;;;;;;1.08;0.80;;;16.80;67.70;;;;;;5103609;28;20035;-37
2021/11/06 09:06:57;;;;;;;0.77;0.70;;;16.80;67.50;;;;;;5103411;28;20031;-37
2021/11/06 09:09:23;;;;;;;0.90;0.63;;;16.70;67.40;;;;;;5103273;28;20038;-38
2021/11/06 09:11:51;;;;;;;0.70;0.70;;;16.70;67.50;;;;;;5103429;28;20020;-38
2021/11/06 09:14:18;;;;;;;0.70;0.60;;;16.70;67.50;;;;;;5103238;28;20134;-38
2021/11/06 09:16:45;;;;;;;1.10;1.00;;;16.70;67.60;;;;;;5102116;28;20031;-38
2021/11/06 09:19:12;;;;;;;1.27;0.90;;;16.60;67.60;;;;;;5103147;28;20511;-38
2021/11/06 09:21:39;;;;;;;0.87;0.77;;;16.60;67.60;;;;;;5103437;28;20035;-38
2021/11/06 09:24:05;;;;;;;;;;;16.60;67.80;;;;;;5103589;28;20097;-38
2021/11/06 09:26:38;;;;;;;0.95;0.70;;;16.70;67.70;;;;;;5103262;28;19908;-37
2021/11/06 09:29:04;;;;;;;0.80;0.65;;;16.70;67.40;;;;;;5103159;28;20025;-39
2021/11/06 09:31:30;;;;;;;0.82;0.70;;;16.70;67.30;;;;;;5103296;28;20035;-37
2021/11/06 09:33:57;;;;;;;0.88;0.73;;;16.70;67.30;;;;;;5103264;28;20028;-38
2021/11/06 09:36:23;;;;;;;1.55;0.85;;;16.70;67.40;;;;;;5102623;28;20025;-38
2021/11/06 09:38:49;;;;;;;1.17;0.70;;;16.60;67.40;;;;;;5102399;28;20036;-37
2021/11/06 09:41:17;;;;;;;0.90;0.80;;;16.60;67.40;;;;;;5103015;28;20034;-38
2021/11/06 09:43:43;;;;;;;0.93;0.60;;;16.60;67.50;;;;;;5102999;28;20059;-38
2021/11/06 09:46:09;;;;;;;0.88;0.70;;;16.70;67.70;;;;;;5102998;28;20129;-38
2021/11/06 09:48:36;;;;;;;1.30;0.80;;;16.70;67.40;;;;;;5102285;28;20039;-37
2021/11/06 09:51:02;;;;;;;0.70;0.60;;;16.80;67.20;;;;;;5102955;28;20263;-38
2021/11/06 09:53:40;;;;;;;0.88;0.60;;;16.70;67.10;;;;;;5102811;28;20545;-38
2021/11/06 09:56:09;;;;;;;;;;;16.70;67.20;;;;;;5103271;28;20047;-37
2021/11/06 09:58:35;;;;;;;0.63;0.63;;;16.70;67.30;;;;;;5102634;28;19976;-38
2021/11/06 10:01:01;;;;;;;0.93;0.77;;;16.60;67.30;;;;;;5101477;28;20020;-38
2021/11/06 10:03:28;;;;;;;0.98;0.75;;;16.60;67.30;;;;;;5102634;28;20583;-38
2021/11/06 10:05:59;;;;;;;0.88;0.80;;;16.60;67.30;;;;;;5102732;28;20040;-38
2021/11/06 10:08:35;;;;;;;0.65;0.60;;;16.70;67.50;;;;;;5102101;28;20028;-38
2021/11/06 10:11:17;;;;;;;0.60;0.60;;;16.70;67.20;;;;;;5102804;28;20061;-38
2021/11/06 10:14:07;;;;;;;0.73;0.60;;;16.70;67.10;;;;;;5102763;28;20062;-38
2021/11/06 10:16:37;;;;;;;0.75;0.70;;;16.70;67.00;;;;;;5102406;28;20112;-38
2021/11/06 10:19:13;;;;;;;0.80;0.70;;;16.70;67.20;;;;;;5102420;28;20093;-38
2021/11/06 10:21:42;;;;;;;0.90;0.65;;;16.60;67.10;;;;;;5102548;28;20058;-37
2021/11/06 10:24:08;;;;;;;0.68;0.60;;;16.60;67.20;;;;;;5102604;28;20036;-38
2021/11/06 10:26:34;;;;;;;1.00;0.80;;;16.70;67.50;;;;;;5102483;28;20025;-37
2021/11/06 10:29:09;;;;;;;0.60;0.60;;;16.80;67.50;;;;;;5102423;28;20032;-38
2021/11/06 10:31:58;;;;;;;0.60;0.60;;;16.80;67.20;;;;;;5102486;28;20031;-38
2021/11/06 10:34:26;;;;;;;0.80;0.60;;;16.80;67.00;;;;;;5095957;28;20032;-37
2021/11/06 10:37:02;;;;;;;0.55;0.52;;;16.70;67.10;;;;;;5100551;28;20028;-38
2021/11/06 10:39:29;;;;;;;0.70;0.60;;;16.70;67.20;;;;;;5102317;28;20655;-37
2021/11/06 10:42:11;;;;;;;0.50;0.50;;;16.60;67.20;;;;;;5102529;28;20017;-38
2021/11/06 10:44:40;;;;;;;0.80;0.73;;;16.60;67.30;;;;;;5102261;28;20040;-38
2021/11/06 10:47:10;;;;;;;0.95;0.60;;;16.60;67.30;;;;;;5102354;28;20027;-38
2021/11/06 10:49:38;;;;;;;0.65;0.63;;;16.70;67.50;;;;;;5102047;28;20032;-38
2021/11/06 10:52:16;;;;;;;1.05;0.65;;;16.70;67.20;;;;;;5102262;28;20024;-38
2021/11/06 10:55:03;;;;;;;0.98;0.68;;;16.70;66.90;;;;;;5082019;28;20020;-38
2021/11/06 10:57:29;;;;;;;0.70;0.50;;;16.70;67.00;;;;;;5082109;28;20021;-38
2021/11/06 11:00:18;;;;;;;0.98;0.63;;;16.70;67.10;;;;;;5084502;28;20021;-38
2021/11/06 11:02:44;;;;;;;;;;;16.60;67.10;;;;;;5086098;28;20029;-38
2021/11/06 11:05:31;;;;;;;0.80;0.55;;;16.70;67.30;;;;;;5085744;28;19946;-37
2021/11/06 11:08:10;;;;;;;0.80;0.60;;;16.80;67.40;;;;;;5098972;28;20020;-37
2021/11/06 11:10:38;;;;;;;0.90;0.60;;;16.80;67.20;;;;;;5104541;28;20036;-37
2021/11/06 11:13:07;;;;;;;;;;;16.80;66.90;;;;;;5106182;28;20031;-38
2021/11/06 11:15:33;;;;;;;0.60;0.60;;;16.70;66.90;;;;;;5105838;28;19920;-38
2021/11/06 11:17:59;;;;;;;0.80;0.60;;;16.70;67.70;;;;;;5105934;28;20028;-38
2021/11/06 11:20:27;;;;;;;0.57;0.57;;;16.70;67.00;;;;;;5105714;28;20036;-37
2021/11/06 11:23:24;;;;;;;1.23;0.60;;;16.60;67.00;;;;;;5105856;28;20024;-39
2021/11/06 11:25:50;;;;;;;1.45;0.75;;;16.60;67.20;;;;;;5006492;28;20046;-37
2021/11/06 11:28:17;;;;;;;1.02;0.80;;;16.70;67.30;;;;;;5022967;28;20140;-39
2021/11/06 11:30:43;;;;;;;0.98;0.75;;;16.80;67.10;;;;;;5022753;28;20045;-38
2021/11/06 11:33:10;;;;;;;0.75;0.68;;;16.80;66.90;;;;;;5022767;28;20022;-38
2021/11/06 11:35:36;;;;;;;1.23;0.80;;;16.70;66.90;;;;;;5022831;28;20049;-38
2021/11/06 11:38:04;;;;;;;0.50;0.50;;;16.70;67.00;;;;;;5002480;28;20863;-38
2021/11/06 11:40:32;;;;;;;1.02;0.80;;;16.60;67.70;;;;;;5002651;28;20029;-40
2021/11/06 11:43:03;;;;;;;1.02;0.70;;;16.60;67.10;;;;;;5006221;28;20046;-37
2021/11/06 11:45:40;;;;;;;0.70;0.60;;;16.70;67.30;;;;;;5022534;28;20030;-38
2021/11/06 11:48:35;;;;;;;0.73;0.60;;;16.80;67.30;;;;;;5022423;28;20030;-38
2021/11/06 11:51:02;;;;;;;0.65;0.60;;;16.80;66.90;;;;;;5005642;28;20038;-38
2021/11/06 11:53:30;;;;;;;0.70;0.50;;;16.70;66.80;;;;;;5022387;28;20109;-38
2021/11/06 11:55:57;;;;;;;1.10;0.88;;;16.70;66.80;;;;;;5022301;28;20456;-38
2021/11/06 11:58:39;;;;;;;0.98;0.52;;;16.70;66.90;;;;;;5022357;28;20026;-38
2021/11/06 12:01:05;;;;;;;0.63;0.60;;;16.70;67.00;;;;;;5009880;28;20042;-37
2021/11/06 12:03:40;;;;;;;0.50;0.45;;;16.60;66.90;;;;;;5105032;28;20137;-38
2021/11/06 12:06:25;;;;;;;0.68;0.40;;;16.60;67.10;;;;;;5104933;28;20043;-38
2021/11/06 12:09:15;;;;;;;0.70;0.57;;;16.70;67.30;;;;;;5104436;28;20032;-37
2021/11/06 12:11:57;;;;;;;1.08;0.70;;;16.70;67.30;;;;;;5098045;28;20036;-38
2021/11/06 12:14:28;;;;;;;0.63;0.50;;;16.80;66.80;;;;;;5104767;28;20051;-38
2021/11/06 12:16:57;;;;;;;0.60;0.60;;;16.70;66.70;;;;;;5104706;28;20019;-37
2021/11/06 12:19:47;;;;;;;0.77;0.63;;;16.70;66.80;;;;;;5103348;28;20036;-37
2021/11/06 12:22:14;;;;;;;0.90;0.52;;;16.60;66.80;;;;;;5084138;28;20039;-38
2021/11/06 12:24:42;;;;;;;0.90;0.52;;;16.70;67.00;;;;;;5084068;28;20112;-37
2021/11/06 12:27:10;;;;;;;2.97;0.60;;;16.70;67.00;;;;;;5084297;28;20050;-38
2021/11/06 12:29:38;;;;;;;0.68;0.55;;;16.80;66.80;;;;;;5084185;28;20048;-38
2021/11/06 12:32:19;;;;;;;0.60;0.50;;;16.80;66.70;;;;;;5083914;28;20025;-38
2021/11/06 12:35:11;;;;;;;0.90;0.68;;;16.70;66.60;;;;;;5084298;28;20088;-38
2021/11/06 12:37:37;;;;;;;0.60;0.60;;;16.70;66.70;;;;;;5094555;28;20032;-38
2021/11/06 12:40:17;;;;;;;0.50;0.50;;;16.60;66.70;;;;;;5104283;28;20020;-38
2021/11/06 12:43:02;;;;;;;0.60;0.60;;;16.60;66.80;;;;;;5104086;28;20028;-38
2021/11/06 12:45:28;;;;;;;0.73;0.55;;;16.60;66.90;;;;;;5088518;28;20032;-37
2021/11/06 12:48:10;;;;;;;0.60;0.50;;;16.70;67.00;;;;;;5104233;28;20016;-37
2021/11/06 12:50:39;;;;;;;1.20;0.60;;;16.70;66.80;;;;;;5103405;28;20028;-37
2021/11/06 12:53:05;;;;;;;1.08;0.50;;;16.70;66.50;;;;;;5104040;28;20123;-37